sensor_id;sensor_type;location;lat;lon;timestamp;P1;durP1;ratioP1;P2;durP2;ratioP2
71856;SDS011;63344;46.980;28.882;2024-01-15T00:02:01;56.50;;;21.38;;
71856;SDS011;63344;46.980;28.882;2024-01-15T00:04:28;48.75;;;17.75;;
71856;SDS011;63344;46.980;28.882;2024-01-15T00:07:01;20.15;;;8.95;;
71856;SDS011;63344;46.980;28.882;2024-01-15T00:09:33;44.45;;;16.90;;
71856;SDS011;63344;46.980;28.882;2024-01-15T00:12:00;40.13;;;14.20;;
71856;SDS011;63344;46.980;28.882;2024-01-15T00:14:29;39.45;;;14.23;;
71856;SDS011;63344;46.980;28.882;2024-01-15T00:16:56;48.65;;;17.13;;
71856;SDS011;63344;46.980;28.882;2024-01-15T00:22:19;9.35;;;5.55;;
71856;SDS011;63344;46.980;28.882;2024-01-15T00:24:47;14.07;;;7.32;;
71856;SDS011;63344;46.980;28.882;2024-01-15T00:27:15;41.38;;;18.35;;
71856;SDS011;63344;46.980;28.882;2024-01-15T00:29:43;57.53;;;21.80;;
71856;SDS011;63344;46.980;28.882;2024-01-15T00:32:10;38.92;;;17.55;;
71856;SDS011;63344;46.980;28.882;2024-01-15T00:34:41;41.60;;;16.63;;
71856;SDS011;63344;46.980;28.882;2024-01-15T00:37:11;58.40;;;18.02;;
71856;SDS011;63344;46.980;28.882;2024-01-15T00:39:39;49.22;;;19.15;;
71856;SDS011;63344;46.980;28.882;2024-01-15T00:42:06;37.47;;;17.00;;
71856;SDS011;63344;46.980;28.882;2024-01-15T00:44:34;45.17;;;18.13;;
71856;SDS011;63344;46.980;28.882;2024-01-15T00:47:05;56.80;;;20.58;;
71856;SDS011;63344;46.980;28.882;2024-01-15T00:49:33;63.05;;;21.48;;
71856;SDS011;63344;46.980;28.882;2024-01-15T00:52:00;53.45;;;18.02;;
71856;SDS011;63344;46.980;28.882;2024-01-15T00:54:29;46.22;;;18.40;;
71856;SDS011;63344;46.980;28.882;2024-01-15T00:56:58;31.27;;;13.60;;
71856;SDS011;63344;46.980;28.882;2024-01-15T00:59:26;47.72;;;16.85;;
71856;SDS011;63344;46.980;28.882;2024-01-15T01:01:53;36.72;;;10.52;;
71856;SDS011;63344;46.980;28.882;2024-01-15T01:04:20;31.42;;;12.07;;
71856;SDS011;63344;46.980;28.882;2024-01-15T01:06:48;17.08;;;6.30;;
71856;SDS011;63344;46.980;28.882;2024-01-15T01:09:17;36.95;;;14.85;;
71856;SDS011;63344;46.980;28.882;2024-01-15T01:11:50;36.55;;;15.38;;
71856;SDS011;63344;46.980;28.882;2024-01-15T01:14:22;39.95;;;15.35;;
71856;SDS011;63344;46.980;28.882;2024-01-15T01:16:49;41.42;;;15.00;;
71856;SDS011;63344;46.980;28.882;2024-01-15T01:19:20;38.95;;;14.82;;
71856;SDS011;63344;46.980;28.882;2024-01-15T01:21:47;29.17;;;9.60;;
71856;SDS011;63344;46.980;28.882;2024-01-15T01:24:15;67.47;;;32.38;;
71856;SDS011;63344;46.980;28.882;2024-01-15T01:26:57;39.38;;;15.48;;
71856;SDS011;63344;46.980;28.882;2024-01-15T01:29:39;35.45;;;14.95;;
71856;SDS011;63344;46.980;28.882;2024-01-15T01:32:11;15.55;;;9.05;;
71856;SDS011;63344;46.980;28.882;2024-01-15T01:34:41;26.60;;;11.20;;
71856;SDS011;63344;46.980;28.882;2024-01-15T01:37:12;42.08;;;18.63;;
71856;SDS011;63344;46.980;28.882;2024-01-15T01:39:48;51.90;;;19.48;;
71856;SDS011;63344;46.980;28.882;2024-01-15T01:42:16;47.53;;;17.98;;
71856;SDS011;63344;46.980;28.882;2024-01-15T01:44:45;31.50;;;13.05;;
71856;SDS011;63344;46.980;28.882;2024-01-15T01:47:12;44.17;;;18.00;;
71856;SDS011;63344;46.980;28.882;2024-01-15T01:49:40;46.33;;;17.65;;
71856;SDS011;63344;46.980;28.882;2024-01-15T01:52:10;44.67;;;17.83;;
71856;SDS011;63344;46.980;28.882;2024-01-15T01:57:33;15.05;;;6.97;;
71856;SDS011;63344;46.980;28.882;2024-01-15T02:00:02;26.88;;;12.48;;
71856;SDS011;63344;46.980;28.882;2024-01-15T02:02:31;40.00;;;17.98;;
71856;SDS011;63344;46.980;28.882;2024-01-15T02:04:59;42.67;;;15.38;;
71856;SDS011;63344;46.980;28.882;2024-01-15T02:07:27;36.80;;;14.38;;
71856;SDS011;63344;46.980;28.882;2024-01-15T02:09:55;41.10;;;15.73;;
71856;SDS011;63344;46.980;28.882;2024-01-15T02:12:22;30.50;;;13.48;;
71856;SDS011;63344;46.980;28.882;2024-01-15T02:14:49;17.88;;;8.70;;
71856;SDS011;63344;46.980;28.882;2024-01-15T02:17:17;40.22;;;16.65;;
71856;SDS011;63344;46.980;28.882;2024-01-15T02:19:45;34.90;;;12.68;;
71856;SDS011;63344;46.980;28.882;2024-01-15T02:22:12;30.70;;;12.43;;
71856;SDS011;63344;46.980;28.882;2024-01-15T02:24:39;18.38;;;9.52;;
71856;SDS011;63344;46.980;28.882;2024-01-15T02:27:07;29.83;;;11.80;;
71856;SDS011;63344;46.980;28.882;2024-01-15T02:29:34;40.97;;;15.82;;
71856;SDS011;63344;46.980;28.882;2024-01-15T02:32:05;40.72;;;15.20;;
71856;SDS011;63344;46.980;28.882;2024-01-15T02:34:36;48.20;;;17.65;;
71856;SDS011;63344;46.980;28.882;2024-01-15T02:37:06;40.35;;;15.77;;
71856;SDS011;63344;46.980;28.882;2024-01-15T02:39:33;41.40;;;14.35;;
71856;SDS011;63344;46.980;28.882;2024-01-15T02:42:00;34.15;;;13.57;;
71856;SDS011;63344;46.980;28.882;2024-01-15T02:46:57;43.03;;;14.75;;
71856;SDS011;63344;46.980;28.882;2024-01-15T02:49:25;32.50;;;13.57;;
71856;SDS011;63344;46.980;28.882;2024-01-15T02:51:52;31.73;;;11.73;;
71856;SDS011;63344;46.980;28.882;2024-01-15T02:54:21;11.90;;;5.68;;
71856;SDS011;63344;46.980;28.882;2024-01-15T02:56:49;25.95;;;10.13;;
71856;SDS011;63344;46.980;28.882;2024-01-15T02:59:19;30.50;;;11.90;;
71856;SDS011;63344;46.980;28.882;2024-01-15T03:01:47;22.40;;;7.28;;
71856;SDS011;63344;46.980;28.882;2024-01-15T03:04:15;29.48;;;11.75;;
71856;SDS011;63344;46.980;28.882;2024-01-15T03:06:42;19.10;;;8.02;;
71856;SDS011;63344;46.980;28.882;2024-01-15T03:09:09;38.50;;;13.10;;
71856;SDS011;63344;46.980;28.882;2024-01-15T03:11:37;21.33;;;5.30;;
71856;SDS011;63344;46.980;28.882;2024-01-15T03:14:06;33.83;;;12.63;;
71856;SDS011;63344;46.980;28.882;2024-01-15T03:16:33;28.35;;;11.70;;
71856;SDS011;63344;46.980;28.882;2024-01-15T03:19:01;33.42;;;13.77;;
71856;SDS011;63344;46.980;28.882;2024-01-15T03:21:28;30.30;;;11.95;;
71856;SDS011;63344;46.980;28.882;2024-01-15T03:23:56;33.97;;;12.80;;
71856;SDS011;63344;46.980;28.882;2024-01-15T03:26:23;30.77;;;12.52;;
71856;SDS011;63344;46.980;28.882;2024-01-15T03:28:51;24.88;;;11.10;;
71856;SDS011;63344;46.980;28.882;2024-01-15T03:31:19;20.48;;;8.70;;
71856;SDS011;63344;46.980;28.882;2024-01-15T03:33:47;10.32;;;4.88;;
71856;SDS011;63344;46.980;28.882;2024-01-15T03:36:16;7.95;;;3.78;;
71856;SDS011;63344;46.980;28.882;2024-01-15T03:38:44;21.17;;;7.45;;
71856;SDS011;63344;46.980;28.882;2024-01-15T03:41:11;34.08;;;14.48;;
71856;SDS011;63344;46.980;28.882;2024-01-15T03:43:40;27.73;;;10.80;;
71856;SDS011;63344;46.980;28.882;2024-01-15T03:46:07;33.83;;;15.38;;
71856;SDS011;63344;46.980;28.882;2024-01-15T03:48:40;33.00;;;14.23;;
71856;SDS011;63344;46.980;28.882;2024-01-15T03:51:09;26.92;;;11.80;;
71856;SDS011;63344;46.980;28.882;2024-01-15T03:54:00;22.60;;;10.02;;
71856;SDS011;63344;46.980;28.882;2024-01-15T03:56:31;33.88;;;12.23;;
71856;SDS011;63344;46.980;28.882;2024-01-15T03:59:02;29.20;;;10.85;;
71856;SDS011;63344;46.980;28.882;2024-01-15T04:01:32;30.77;;;12.90;;
71856;SDS011;63344;46.980;28.882;2024-01-15T04:04:02;25.50;;;11.20;;
71856;SDS011;63344;46.980;28.882;2024-01-15T04:06:44;15.93;;;7.55;;
71856;SDS011;63344;46.980;28.882;2024-01-15T04:09:14;14.52;;;5.90;;
71856;SDS011;63344;46.980;28.882;2024-01-15T04:11:42;24.60;;;10.10;;
71856;SDS011;63344;46.980;28.882;2024-01-15T04:14:09;5.63;;;3.10;;
71856;SDS011;63344;46.980;28.882;2024-01-15T04:16:41;27.90;;;9.82;;
71856;SDS011;63344;46.980;28.882;2024-01-15T04:19:08;43.38;;;18.38;;
71856;SDS011;63344;46.980;28.882;2024-01-15T04:21:36;42.13;;;18.50;;
71856;SDS011;63344;46.980;28.882;2024-01-15T04:24:03;44.17;;;16.17;;
71856;SDS011;63344;46.980;28.882;2024-01-15T04:29:56;38.00;;;13.65;;
71856;SDS011;63344;46.980;28.882;2024-01-15T04:32:52;56.17;;;23.10;;
71856;SDS011;63344;46.980;28.882;2024-01-15T04:35:20;55.85;;;19.65;;
71856;SDS011;63344;46.980;28.882;2024-01-15T04:37:48;26.92;;;9.13;;
71856;SDS011;63344;46.980;28.882;2024-01-15T04:40:16;48.28;;;18.45;;
71856;SDS011;63344;46.980;28.882;2024-01-15T04:42:46;47.75;;;20.52;;
71856;SDS011;63344;46.980;28.882;2024-01-15T04:45:15;16.27;;;9.52;;
71856;SDS011;63344;46.980;28.882;2024-01-15T04:47:42;21.65;;;10.02;;
71856;SDS011;63344;46.980;28.882;2024-01-15T04:50:10;13.90;;;6.72;;
71856;SDS011;63344;46.980;28.882;2024-01-15T04:52:37;23.50;;;9.35;;
71856;SDS011;63344;46.980;28.882;2024-01-15T04:55:05;31.30;;;12.25;;
71856;SDS011;63344;46.980;28.882;2024-01-15T04:57:32;37.83;;;14.25;;
71856;SDS011;63344;46.980;28.882;2024-01-15T05:00:01;27.48;;;14.00;;
71856;SDS011;63344;46.980;28.882;2024-01-15T05:02:29;42.30;;;17.48;;
71856;SDS011;63344;46.980;28.882;2024-01-15T05:04:59;10.80;;;5.60;;
71856;SDS011;63344;46.980;28.882;2024-01-15T05:07:26;38.70;;;14.50;;
71856;SDS011;63344;46.980;28.882;2024-01-15T05:09:53;32.97;;;13.10;;
71856;SDS011;63344;46.980;28.882;2024-01-15T05:12:20;18.63;;;7.65;;
71856;SDS011;63344;46.980;28.882;2024-01-15T05:14:48;24.55;;;9.35;;
71856;SDS011;63344;46.980;28.882;2024-01-15T05:17:15;21.38;;;7.85;;
71856;SDS011;63344;46.980;28.882;2024-01-15T05:19:44;23.38;;;8.93;;
71856;SDS011;63344;46.980;28.882;2024-01-15T05:22:16;22.63;;;9.75;;
71856;SDS011;63344;46.980;28.882;2024-01-15T05:24:43;14.75;;;7.60;;
71856;SDS011;63344;46.980;28.882;2024-01-15T05:27:10;25.30;;;10.55;;
71856;SDS011;63344;46.980;28.882;2024-01-15T05:29:39;11.15;;;4.55;;
71856;SDS011;63344;46.980;28.882;2024-01-15T05:32:08;21.33;;;9.88;;
71856;SDS011;63344;46.980;28.882;2024-01-15T05:34:36;22.30;;;9.52;;
71856;SDS011;63344;46.980;28.882;2024-01-15T05:37:33;30.33;;;9.63;;
71856;SDS011;63344;46.980;28.882;2024-01-15T05:40:00;26.73;;;10.80;;
71856;SDS011;63344;46.980;28.882;2024-01-15T05:42:28;28.13;;;11.35;;
71856;SDS011;63344;46.980;28.882;2024-01-15T05:44:57;24.27;;;9.55;;
71856;SDS011;63344;46.980;28.882;2024-01-15T05:47:26;30.40;;;11.23;;
71856;SDS011;63344;46.980;28.882;2024-01-15T05:49:54;24.83;;;8.05;;
71856;SDS011;63344;46.980;28.882;2024-01-15T05:52:21;20.52;;;9.90;;
71856;SDS011;63344;46.980;28.882;2024-01-15T05:54:50;24.80;;;10.48;;
71856;SDS011;63344;46.980;28.882;2024-01-15T05:57:17;23.35;;;10.13;;
71856;SDS011;63344;46.980;28.882;2024-01-15T05:59:45;21.80;;;9.35;;
71856;SDS011;63344;46.980;28.882;2024-01-15T06:02:12;24.02;;;10.35;;
71856;SDS011;63344;46.980;28.882;2024-01-15T06:04:39;24.45;;;9.23;;
71856;SDS011;63344;46.980;28.882;2024-01-15T06:07:07;21.38;;;9.25;;
71856;SDS011;63344;46.980;28.882;2024-01-15T06:09:36;19.92;;;9.18;;
71856;SDS011;63344;46.980;28.882;2024-01-15T06:12:03;19.58;;;8.00;;
71856;SDS011;63344;46.980;28.882;2024-01-15T06:14:31;22.13;;;9.30;;
71856;SDS011;63344;46.980;28.882;2024-01-15T06:16:58;21.85;;;7.88;;
71856;SDS011;63344;46.980;28.882;2024-01-15T06:19:27;23.92;;;9.27;;
71856;SDS011;63344;46.980;28.882;2024-01-15T06:21:55;14.38;;;6.90;;
71856;SDS011;63344;46.980;28.882;2024-01-15T06:24:24;26.70;;;10.55;;
71856;SDS011;63344;46.980;28.882;2024-01-15T06:26:51;28.50;;;10.00;;
71856;SDS011;63344;46.980;28.882;2024-01-15T06:29:19;24.45;;;9.77;;
71856;SDS011;63344;46.980;28.882;2024-01-15T06:31:46;24.20;;;10.30;;
71856;SDS011;63344;46.980;28.882;2024-01-15T06:34:17;18.55;;;8.13;;
71856;SDS011;63344;46.980;28.882;2024-01-15T06:36:44;22.38;;;9.13;;
71856;SDS011;63344;46.980;28.882;2024-01-15T06:42:04;17.60;;;7.75;;
71856;SDS011;63344;46.980;28.882;2024-01-15T06:44:32;18.00;;;7.15;;
71856;SDS011;63344;46.980;28.882;2024-01-15T06:47:02;19.92;;;7.72;;
71856;SDS011;63344;46.980;28.882;2024-01-15T06:49:30;30.45;;;12.52;;
71856;SDS011;63344;46.980;28.882;2024-01-15T06:51:58;34.50;;;14.20;;
71856;SDS011;63344;46.980;28.882;2024-01-15T06:54:25;26.08;;;10.10;;
71856;SDS011;63344;46.980;28.882;2024-01-15T06:56:56;35.75;;;14.80;;
71856;SDS011;63344;46.980;28.882;2024-01-15T06:59:23;36.25;;;13.25;;
71856;SDS011;63344;46.980;28.882;2024-01-15T07:02:04;20.95;;;8.18;;
71856;SDS011;63344;46.980;28.882;2024-01-15T07:04:31;49.50;;;16.20;;
71856;SDS011;63344;46.980;28.882;2024-01-15T07:07:00;52.92;;;16.58;;
71856;SDS011;63344;46.980;28.882;2024-01-15T07:09:27;31.83;;;12.88;;
71856;SDS011;63344;46.980;28.882;2024-01-15T07:12:09;31.23;;;12.68;;
71856;SDS011;63344;46.980;28.882;2024-01-15T07:14:42;29.58;;;12.75;;
71856;SDS011;63344;46.980;28.882;2024-01-15T07:17:30;33.42;;;12.60;;
71856;SDS011;63344;46.980;28.882;2024-01-15T07:19:59;37.67;;;14.27;;
71856;SDS011;63344;46.980;28.882;2024-01-15T07:22:29;35.83;;;14.63;;
71856;SDS011;63344;46.980;28.882;2024-01-15T07:24:56;35.83;;;13.23;;
71856;SDS011;63344;46.980;28.882;2024-01-15T07:27:27;37.75;;;14.27;;
71856;SDS011;63344;46.980;28.882;2024-01-15T07:30:23;34.95;;;14.88;;
71856;SDS011;63344;46.980;28.882;2024-01-15T07:32:51;24.33;;;10.32;;
71856;SDS011;63344;46.980;28.882;2024-01-15T07:35:21;38.72;;;14.27;;
71856;SDS011;63344;46.980;28.882;2024-01-15T07:37:49;36.60;;;13.35;;
71856;SDS011;63344;46.980;28.882;2024-01-15T07:40:17;40.38;;;14.98;;
71856;SDS011;63344;46.980;28.882;2024-01-15T07:42:44;41.63;;;16.88;;
71856;SDS011;63344;46.980;28.882;2024-01-15T07:45:11;32.88;;;13.15;;
71856;SDS011;63344;46.980;28.882;2024-01-15T07:47:43;17.48;;;8.63;;
71856;SDS011;63344;46.980;28.882;2024-01-15T07:50:12;20.67;;;9.10;;
71856;SDS011;63344;46.980;28.882;2024-01-15T07:52:40;43.92;;;17.92;;
71856;SDS011;63344;46.980;28.882;2024-01-15T07:55:12;66.47;;;29.65;;
71856;SDS011;63344;46.980;28.882;2024-01-15T07:57:40;30.77;;;12.75;;
71856;SDS011;63344;46.980;28.882;2024-01-15T08:00:08;49.53;;;22.67;;
71856;SDS011;63344;46.980;28.882;2024-01-15T08:02:36;46.83;;;23.65;;
71856;SDS011;63344;46.980;28.882;2024-01-15T08:05:04;44.33;;;18.00;;
71856;SDS011;63344;46.980;28.882;2024-01-15T08:07:34;20.05;;;9.48;;
71856;SDS011;63344;46.980;28.882;2024-01-15T08:10:02;28.27;;;11.98;;
71856;SDS011;63344;46.980;28.882;2024-01-15T08:12:30;27.70;;;11.77;;
71856;SDS011;63344;46.980;28.882;2024-01-15T08:14:58;8.52;;;4.85;;
71856;SDS011;63344;46.980;28.882;2024-01-15T08:17:25;20.77;;;8.90;;
71856;SDS011;63344;46.980;28.882;2024-01-15T08:19:55;30.00;;;12.73;;
71856;SDS011;63344;46.980;28.882;2024-01-15T08:22:24;18.92;;;8.25;;
71856;SDS011;63344;46.980;28.882;2024-01-15T08:24:52;22.17;;;10.23;;
71856;SDS011;63344;46.980;28.882;2024-01-15T08:27:22;21.25;;;9.63;;
71856;SDS011;63344;46.980;28.882;2024-01-15T08:29:50;22.25;;;10.27;;
71856;SDS011;63344;46.980;28.882;2024-01-15T08:32:18;24.13;;;11.05;;
71856;SDS011;63344;46.980;28.882;2024-01-15T08:34:55;32.00;;;14.75;;
71856;SDS011;63344;46.980;28.882;2024-01-15T08:37:38;26.77;;;13.75;;
71856;SDS011;63344;46.980;28.882;2024-01-15T08:40:07;58.40;;;25.55;;
71856;SDS011;63344;46.980;28.882;2024-01-15T08:42:34;48.80;;;21.95;;
71856;SDS011;63344;46.980;28.882;2024-01-15T08:45:02;53.40;;;23.23;;
71856;SDS011;63344;46.980;28.882;2024-01-15T08:47:30;60.08;;;26.35;;
71856;SDS011;63344;46.980;28.882;2024-01-15T08:49:57;62.63;;;27.58;;
71856;SDS011;63344;46.980;28.882;2024-01-15T08:52:26;19.95;;;9.20;;
71856;SDS011;63344;46.980;28.882;2024-01-15T08:55:02;34.55;;;13.82;;
71856;SDS011;63344;46.980;28.882;2024-01-15T08:57:31;24.70;;;8.38;;
71856;SDS011;63344;46.980;28.882;2024-01-15T08:59:58;41.95;;;13.63;;
71856;SDS011;63344;46.980;28.882;2024-01-15T09:02:26;41.35;;;17.00;;
71856;SDS011;63344;46.980;28.882;2024-01-15T09:04:53;22.35;;;9.85;;
71856;SDS011;63344;46.980;28.882;2024-01-15T09:07:21;20.05;;;8.27;;
71856;SDS011;63344;46.980;28.882;2024-01-15T09:09:49;16.92;;;7.25;;
71856;SDS011;63344;46.980;28.882;2024-01-15T09:12:16;13.10;;;5.43;;
71856;SDS011;63344;46.980;28.882;2024-01-15T09:14:45;14.48;;;7.22;;
71856;SDS011;63344;46.980;28.882;2024-01-15T09:17:12;13.90;;;6.72;;
71856;SDS011;63344;46.980;28.882;2024-01-15T09:19:40;16.08;;;6.82;;
71856;SDS011;63344;46.980;28.882;2024-01-15T09:22:09;16.42;;;7.35;;
71856;SDS011;63344;46.980;28.882;2024-01-15T09:24:51;16.45;;;7.25;;
71856;SDS011;63344;46.980;28.882;2024-01-15T09:27:26;13.63;;;6.35;;
71856;SDS011;63344;46.980;28.882;2024-01-15T09:29:54;15.93;;;7.00;;
71856;SDS011;63344;46.980;28.882;2024-01-15T09:32:21;14.55;;;6.45;;
71856;SDS011;63344;46.980;28.882;2024-01-15T09:34:48;14.27;;;6.70;;
71856;SDS011;63344;46.980;28.882;2024-01-15T09:37:16;14.13;;;7.00;;
71856;SDS011;63344;46.980;28.882;2024-01-15T09:40:04;15.50;;;7.82;;
71856;SDS011;63344;46.980;28.882;2024-01-15T09:42:33;13.30;;;6.22;;
71856;SDS011;63344;46.980;28.882;2024-01-15T09:45:02;15.73;;;7.50;;
71856;SDS011;63344;46.980;28.882;2024-01-15T09:47:30;13.77;;;6.50;;
71856;SDS011;63344;46.980;28.882;2024-01-15T09:49:58;15.32;;;7.65;;
71856;SDS011;63344;46.980;28.882;2024-01-15T09:55:00;15.05;;;7.90;;
71856;SDS011;63344;46.980;28.882;2024-01-15T09:57:30;13.55;;;7.40;;
71856;SDS011;63344;46.980;28.882;2024-01-15T09:59:59;15.82;;;8.65;;
71856;SDS011;63344;46.980;28.882;2024-01-15T10:02:31;14.80;;;7.45;;
71856;SDS011;63344;46.980;28.882;2024-01-15T10:04:58;17.35;;;9.32;;
71856;SDS011;63344;46.980;28.882;2024-01-15T10:07:27;15.95;;;8.90;;
71856;SDS011;63344;46.980;28.882;2024-01-15T10:09:56;14.32;;;7.03;;
71856;SDS011;63344;46.980;28.882;2024-01-15T10:12:24;15.60;;;7.85;;
71856;SDS011;63344;46.980;28.882;2024-01-15T10:14:55;15.85;;;7.65;;
71856;SDS011;63344;46.980;28.882;2024-01-15T10:17:23;16.75;;;8.48;;
71856;SDS011;63344;46.980;28.882;2024-01-15T10:20:10;14.20;;;7.60;;
71856;SDS011;63344;46.980;28.882;2024-01-15T10:22:40;16.80;;;8.23;;
71856;SDS011;63344;46.980;28.882;2024-01-15T10:25:12;15.60;;;6.95;;
71856;SDS011;63344;46.980;28.882;2024-01-15T10:27:40;12.93;;;6.78;;
71856;SDS011;63344;46.980;28.882;2024-01-15T10:30:09;14.80;;;7.57;;
71856;SDS011;63344;46.980;28.882;2024-01-15T10:32:38;13.90;;;6.65;;
71856;SDS011;63344;46.980;28.882;2024-01-15T10:35:06;16.67;;;7.28;;
71856;SDS011;63344;46.980;28.882;2024-01-15T10:37:34;16.30;;;7.47;;
71856;SDS011;63344;46.980;28.882;2024-01-15T10:40:02;13.88;;;7.82;;
71856;SDS011;63344;46.980;28.882;2024-01-15T10:42:33;17.70;;;7.95;;
71856;SDS011;63344;46.980;28.882;2024-01-15T10:45:01;17.35;;;8.00;;
71856;SDS011;63344;46.980;28.882;2024-01-15T10:47:29;15.45;;;7.20;;
71856;SDS011;63344;46.980;28.882;2024-01-15T10:50:05;11.00;;;5.47;;
71856;SDS011;63344;46.980;28.882;2024-01-15T10:52:34;13.88;;;7.47;;
71856;SDS011;63344;46.980;28.882;2024-01-15T10:55:03;16.42;;;7.68;;
71856;SDS011;63344;46.980;28.882;2024-01-15T10:57:38;16.30;;;7.45;;
71856;SDS011;63344;46.980;28.882;2024-01-15T11:00:10;10.60;;;4.60;;
71856;SDS011;63344;46.980;28.882;2024-01-15T11:02:44;17.45;;;7.82;;
71856;SDS011;63344;46.980;28.882;2024-01-15T11:05:12;14.02;;;5.97;;
71856;SDS011;63344;46.980;28.882;2024-01-15T11:07:42;15.23;;;7.60;;
71856;SDS011;63344;46.980;28.882;2024-01-15T11:13:22;14.07;;;6.38;;
71856;SDS011;63344;46.980;28.882;2024-01-15T11:16:29;12.60;;;6.28;;
71856;SDS011;63344;46.980;28.882;2024-01-15T11:19:22;14.20;;;6.50;;
71856;SDS011;63344;46.980;28.882;2024-01-15T11:22:10;15.70;;;7.55;;
71856;SDS011;63344;46.980;28.882;2024-01-15T11:25:34;16.80;;;7.47;;
71856;SDS011;63344;46.980;28.882;2024-01-15T11:28:06;13.48;;;6.40;;
71856;SDS011;63344;46.980;28.882;2024-01-15T11:30:34;17.05;;;7.70;;
71856;SDS011;63344;46.980;28.882;2024-01-15T11:33:04;15.73;;;6.80;;
71856;SDS011;63344;46.980;28.882;2024-01-15T11:35:49;15.90;;;7.95;;
71856;SDS011;63344;46.980;28.882;2024-01-15T11:38:27;21.27;;;8.07;;
71856;SDS011;63344;46.980;28.882;2024-01-15T11:40:59;14.35;;;6.80;;
71856;SDS011;63344;46.980;28.882;2024-01-15T11:43:33;14.40;;;7.63;;
71856;SDS011;63344;46.980;28.882;2024-01-15T11:46:01;15.40;;;7.03;;
71856;SDS011;63344;46.980;28.882;2024-01-15T11:48:33;15.25;;;8.25;;
71856;SDS011;63344;46.980;28.882;2024-01-15T11:51:13;18.15;;;8.18;;
71856;SDS011;63344;46.980;28.882;2024-01-15T11:53:47;17.38;;;8.52;;
71856;SDS011;63344;46.980;28.882;2024-01-15T11:56:18;18.65;;;8.68;;
71856;SDS011;63344;46.980;28.882;2024-01-15T11:58:49;15.68;;;8.43;;
71856;SDS011;63344;46.980;28.882;2024-01-15T12:01:19;14.98;;;8.13;;
71856;SDS011;63344;46.980;28.882;2024-01-15T12:03:53;16.15;;;7.28;;
71856;SDS011;63344;46.980;28.882;2024-01-15T12:06:21;20.45;;;8.55;;
71856;SDS011;63344;46.980;28.882;2024-01-15T12:08:50;16.80;;;7.47;;
71856;SDS011;63344;46.980;28.882;2024-01-15T12:11:36;17.15;;;7.63;;
71856;SDS011;63344;46.980;28.882;2024-01-15T12:14:22;13.95;;;7.50;;
71856;SDS011;63344;46.980;28.882;2024-01-15T12:16:50;20.27;;;7.97;;
71856;SDS011;63344;46.980;28.882;2024-01-15T12:19:48;14.95;;;7.90;;
71856;SDS011;63344;46.980;28.882;2024-01-15T12:22:18;16.75;;;7.80;;
71856;SDS011;63344;46.980;28.882;2024-01-15T12:27:56;15.50;;;8.05;;
71856;SDS011;63344;46.980;28.882;2024-01-15T12:30:46;18.75;;;10.05;;
71856;SDS011;63344;46.980;28.882;2024-01-15T12:34:01;17.50;;;7.90;;
71856;SDS011;63344;46.980;28.882;2024-01-15T12:36:36;14.40;;;6.95;;
71856;SDS011;63344;46.980;28.882;2024-01-15T12:39:04;17.40;;;8.93;;
71856;SDS011;63344;46.980;28.882;2024-01-15T12:41:39;16.15;;;9.05;;
71856;SDS011;63344;46.980;28.882;2024-01-15T12:44:30;18.95;;;8.82;;
71856;SDS011;63344;46.980;28.882;2024-01-15T12:47:16;19.00;;;9.05;;
71856;SDS011;63344;46.980;28.882;2024-01-15T12:49:50;19.10;;;8.02;;
71856;SDS011;63344;46.980;28.882;2024-01-15T12:52:32;17.00;;;8.55;;
71856;SDS011;63344;46.980;28.882;2024-01-15T12:54:59;15.77;;;7.32;;
71856;SDS011;63344;46.980;28.882;2024-01-15T12:57:26;18.27;;;8.65;;
71856;SDS011;63344;46.980;28.882;2024-01-15T12:59:54;16.20;;;7.25;;
71856;SDS011;63344;46.980;28.882;2024-01-15T13:02:21;14.63;;;8.07;;
71856;SDS011;63344;46.980;28.882;2024-01-15T13:05:10;17.92;;;7.95;;
71856;SDS011;63344;46.980;28.882;2024-01-15T13:07:40;12.93;;;7.75;;
71856;SDS011;63344;46.980;28.882;2024-01-15T13:10:07;17.55;;;8.70;;
71856;SDS011;63344;46.980;28.882;2024-01-15T13:12:42;14.27;;;8.00;;
71856;SDS011;63344;46.980;28.882;2024-01-15T13:15:10;15.57;;;8.23;;
71856;SDS011;63344;46.980;28.882;2024-01-15T13:17:41;13.55;;;7.30;;
71856;SDS011;63344;46.980;28.882;2024-01-15T13:20:11;18.75;;;8.88;;
71856;SDS011;63344;46.980;28.882;2024-01-15T13:22:40;15.23;;;8.00;;
71856;SDS011;63344;46.980;28.882;2024-01-15T13:25:11;15.13;;;7.00;;
71856;SDS011;63344;46.980;28.882;2024-01-15T13:27:41;14.13;;;7.70;;
71856;SDS011;63344;46.980;28.882;2024-01-15T13:30:13;18.95;;;8.85;;
71856;SDS011;63344;46.980;28.882;2024-01-15T13:32:43;14.05;;;7.32;;
71856;SDS011;63344;46.980;28.882;2024-01-15T13:35:10;19.15;;;8.85;;
71856;SDS011;63344;46.980;28.882;2024-01-15T13:37:41;12.80;;;6.40;;
71856;SDS011;63344;46.980;28.882;2024-01-15T13:40:08;14.05;;;7.57;;
71856;SDS011;63344;46.980;28.882;2024-01-15T13:42:36;15.30;;;6.88;;
71856;SDS011;63344;46.980;28.882;2024-01-15T13:45:05;14.88;;;6.88;;
71856;SDS011;63344;46.980;28.882;2024-01-15T13:47:38;16.40;;;7.97;;
71856;SDS011;63344;46.980;28.882;2024-01-15T13:50:13;15.88;;;7.55;;
71856;SDS011;63344;46.980;28.882;2024-01-15T13:52:41;17.85;;;7.82;;
71856;SDS011;63344;46.980;28.882;2024-01-15T13:55:10;14.45;;;8.27;;
71856;SDS011;63344;46.980;28.882;2024-01-15T13:57:41;17.63;;;8.73;;
71856;SDS011;63344;46.980;28.882;2024-01-15T14:00:09;13.65;;;6.85;;
71856;SDS011;63344;46.980;28.882;2024-01-15T14:02:41;16.55;;;7.93;;
71856;SDS011;63344;46.980;28.882;2024-01-15T14:05:09;13.90;;;6.63;;
71856;SDS011;63344;46.980;28.882;2024-01-15T14:07:40;11.88;;;6.78;;
71856;SDS011;63344;46.980;28.882;2024-01-15T14:10:08;19.85;;;6.75;;
71856;SDS011;63344;46.980;28.882;2024-01-15T14:12:41;13.80;;;7.28;;
71856;SDS011;63344;46.980;28.882;2024-01-15T14:15:08;15.95;;;7.18;;
71856;SDS011;63344;46.980;28.882;2024-01-15T14:17:37;15.10;;;6.85;;
71856;SDS011;63344;46.980;28.882;2024-01-15T14:20:05;20.50;;;7.90;;
71856;SDS011;63344;46.980;28.882;2024-01-15T14:22:33;17.48;;;7.65;;
71856;SDS011;63344;46.980;28.882;2024-01-15T14:25:00;14.43;;;7.55;;
71856;SDS011;63344;46.980;28.882;2024-01-15T14:27:28;15.20;;;7.47;;
71856;SDS011;63344;46.980;28.882;2024-01-15T14:29:56;15.63;;;7.13;;
71856;SDS011;63344;46.980;28.882;2024-01-15T14:32:23;14.45;;;6.75;;
71856;SDS011;63344;46.980;28.882;2024-01-15T14:34:51;13.38;;;6.22;;
71856;SDS011;63344;46.980;28.882;2024-01-15T14:37:19;12.52;;;5.70;;
71856;SDS011;63344;46.980;28.882;2024-01-15T14:39:48;15.65;;;7.03;;
71856;SDS011;63344;46.980;28.882;2024-01-15T14:42:16;11.18;;;5.85;;
71856;SDS011;63344;46.980;28.882;2024-01-15T14:44:43;15.32;;;7.18;;
71856;SDS011;63344;46.980;28.882;2024-01-15T14:47:11;16.20;;;7.30;;
71856;SDS011;63344;46.980;28.882;2024-01-15T14:49:38;14.38;;;6.88;;
71856;SDS011;63344;46.980;28.882;2024-01-15T14:52:06;14.18;;;5.68;;
71856;SDS011;63344;46.980;28.882;2024-01-15T14:54:33;15.50;;;6.40;;
71856;SDS011;63344;46.980;28.882;2024-01-15T14:57:02;13.88;;;8.05;;
71856;SDS011;63344;46.980;28.882;2024-01-15T14:59:29;11.27;;;5.97;;